Time,TemperatureF,DewpointF,PressureIn,WindDirection,WindDirectionDegrees,WindSpeedMPH,WindSpeedGustMPH,Humidity,HourlyPrecipIn,Conditions,Clouds,dailyrainin,SoftwareType,DateUTC
2013-07-07 00:01:00,73.2,69.8,30.04,West,270,0.0,0.0,89,0.00,OVC,,0.00,WeatherDisplay:10.37,2013-07-07 04:01:00,
2013-07-07 00:02:00,73.2,69.8,30.04,WSW,248,0.0,0.0,89,0.00,OVC,,0.00,WeatherDisplay:10.37,2013-07-07 04:02:00,
2013-07-07 00:03:00,73.2,69.8,30.04,SW,225,0.0,0.0,89,0.00,OVC,,0.00,WeatherDisplay:10.37,2013-07-07 04:03:00,
2013-07-07 00:08:00,73.2,70.1,30.04,SE,135,1.5,2.3,90,0.00,OVC,,0.00,WeatherDisplay:10.37,2013-07-07 04:08:00,
2013-07-07 00:13:00,73.2,70.1,30.04,South,180,0.0,0.0,90,0.00,BKN,,0.00,WeatherDisplay:10.37,2013-07-07 04:13:00,
2013-07-07 00:18:00,73.2,70.1,30.04,SSE,158,1.7,2.3,90,0.00,BKN,,0.00,WeatherDisplay:10.37,2013-07-07 04:18:00,
2013-07-07 00:23:00,73.4,70.3,30.04,SE,135,0.2,1.1,90,0.00,BKN,,0.00,WeatherDisplay:10.37,2013-07-07 04:23:00,
2013-07-07 00:28:00,73.2,70.1,30.04,SE,135,0.2,2.3,90,0.00,BKN,,0.00,WeatherDisplay:10.37,2013-07-07 04:28:00,
2013-07-07 00:33:00,73.2,70.1,30.04,SSE,158,1.2,1.2,90,0.00,BKN,,0.00,WeatherDisplay:10.37,2013-07-07 04:33:00,
2013-07-07 00:38:00,73.2,70.1,30.04,SSE,158,1.8,2.3,90,0.00,BKN,,0.00,WeatherDisplay:10.37,2013-07-07 04:38:00,
2013-07-07 00:43:00,73.2,70.1,30.04,South,180,0.0,0.0,90,0.00,BKN,,0.00,WeatherDisplay:10.37,2013-07-07 04:43:00,
2013-07-07 00:48:00,73.2,70.1,30.04,SW,225,0.5,1.1,90,0.00,BKN,,0.00,WeatherDisplay:10.37,2013-07-07 04:48:00,
2013-07-07 00:53:00,73.2,70.4,30.04,SSE,158,2.0,2.3,91,0.00,BKN,,0.00,WeatherDisplay:10.37,2013-07-07 04:53:00,
2013-07-07 00:58:00,73.2,70.4,30.04,WSW,248,2.1,2.3,91,0.00,BKN,,0.00,WeatherDisplay:10.37,2013-07-07 04:58:00,
2013-07-07 01:03:00,73.2,70.4,30.04,East,90,0.8,2.3,91,0.00,-RA,,0.00,WeatherDisplay:10.37,2013-07-07 05:03:00,
2013-07-07 01:08:00,73.2,70.4,30.03,SE,135,1.6,2.2,91,0.00,-RA,,0.00,WeatherDisplay:10.37,2013-07-07 05:08:00,
2013-07-07 01:13:00,73.2,70.7,30.03,ESE,112,1.5,1.7,92,0.00,-RA,,0.00,WeatherDisplay:10.37,2013-07-07 05:13:00,
2013-07-07 01:18:00,73.2,70.7,30.03,SSW,202,0.0,0.0,92,0.00,-RA,,0.00,WeatherDisplay:10.37,2013-07-07 05:18:00,
2013-07-07 01:23:00,73.4,70.9,30.03,SW,225,1.1,4.6,92,0.00,-RA,,0.00,WeatherDisplay:10.37,2013-07-07 05:23:00,
2013-07-07 01:28:00,73.2,71.1,30.03,SSE,158,2.6,2.7,93,0.02,-RA,,0.02,WeatherDisplay:10.37,2013-07-07 05:28:00,
2013-07-07 01:33:00,73.0,71.2,30.03,SSW,202,0.0,0.0,94,0.02,-RA,,0.02,WeatherDisplay:10.37,2013-07-07 05:33:00,
2013-07-07 01:38:00,73.0,71.2,30.03,West,270,0.0,0.0,94,0.02,-RA,,0.02,WeatherDisplay:10.37,2013-07-07 05:38:00,
2013-07-07 01:43:00,72.9,71.4,30.03,WSW,248,2.0,2.3,95,0.03,-RA,,0.03,WeatherDisplay:10.37,2013-07-07 05:43:00,
2013-07-07 01:48:00,72.9,71.4,30.03,SW,225,0.0,1.1,95,0.03,-RA,,0.03,WeatherDisplay:10.37,2013-07-07 05:48:00,
2013-07-07 01:53:00,72.9,71.4,30.03,South,180,0.9,1.1,95,0.03,-RA,,0.03,WeatherDisplay:10.37,2013-07-07 05:53:00,
2013-07-07 01:58:00,72.7,71.2,30.03,South,180,0.0,1.1,95,0.03,-RA,,0.03,WeatherDisplay:10.37,2013-07-07 05:58:00,
2013-07-07 02:03:00,72.7,71.2,30.03,WSW,248,0.7,2.3,95,0.03,-RA,,0.03,WeatherDisplay:10.37,2013-07-07 06:03:00,
2013-07-07 02:08:00,72.7,71.2,30.03,WSW,248,0.0,0.0,95,0.03,-RA,,0.03,WeatherDisplay:10.37,2013-07-07 06:08:00,
2013-07-07 02:13:00,72.5,71.0,30.03,West,270,0.7,1.1,95,0.03,-RA,,0.03,WeatherDisplay:10.37,2013-07-07 06:13:00,
2013-07-07 02:18:00,72.5,71.0,30.04,SW,225,2.0,2.3,95,0.04,-RA,,0.04,WeatherDisplay:10.37,2013-07-07 06:18:00,
2013-07-07 02:23:00,72.5,71.0,30.04,WSW,248,1.5,2.3,95,0.05,-RA,,0.05,WeatherDisplay:10.37,2013-07-07 06:23:00,
2013-07-07 02:28:00,72.5,71.0,30.04,WSW,248,1.9,2.7,95,0.04,-RA,,0.06,WeatherDisplay:10.37,2013-07-07 06:28:00,
2013-07-07 02:33:00,72.5,71.0,30.03,SSW,202,0.6,1.1,95,0.04,-RA,,0.06,WeatherDisplay:10.37,2013-07-07 06:33:00,
2013-07-07 02:38:00,72.5,71.0,30.03,SE,135,0.0,1.1,95,0.04,-RA,,0.06,WeatherDisplay:10.37,2013-07-07 06:38:00,
2013-07-07 02:43:00,72.5,71.0,30.02,SSE,158,2.3,2.3,95,0.04,-RA,,0.07,WeatherDisplay:10.37,2013-07-07 06:43:00,
2013-07-07 02:48:00,72.5,71.0,30.02,SSE,158,0.3,1.1,95,0.05,-RA,,0.08,WeatherDisplay:10.37,2013-07-07 06:48:00,
2013-07-07 02:53:00,72.5,71.0,30.02,SSE,158,1.5,2.3,95,0.05,-RA,,0.08,WeatherDisplay:10.37,2013-07-07 06:53:00,
2013-07-07 02:58:00,72.3,70.8,30.02,South,180,1.7,1.7,95,0.05,-RA,,0.08,WeatherDisplay:10.37,2013-07-07 06:58:00,
2013-07-07 03:03:00,72.1,70.6,30.02,SE,135,0.0,0.0,95,0.05,-RA,,0.08,WeatherDisplay:10.37,2013-07-07 07:03:00,
2013-07-07 03:08:00,72.1,70.6,30.02,SSE,158,1.6,2.3,95,0.05,-RA,,0.08,WeatherDisplay:10.37,2013-07-07 07:08:00,
2013-07-07 03:13:00,72.1,70.6,30.02,South,180,2.3,2.7,95,0.05,OVC,,0.08,WeatherDisplay:10.37,2013-07-07 07:13:00,
2013-07-07 03:18:00,72.0,70.5,30.02,SSE,158,2.4,3.5,95,0.04,OVC,,0.08,WeatherDisplay:10.37,2013-07-07 07:18:00,
2013-07-07 03:23:00,71.8,70.3,30.02,SSE,158,2.2,2.3,95,0.03,OVC,,0.08,WeatherDisplay:10.37,2013-07-07 07:23:00,
2013-07-07 03:28:00,71.8,70.3,30.02,West,270,1.1,2.3,95,0.02,OVC,,0.08,WeatherDisplay:10.37,2013-07-07 07:28:00,
2013-07-07 03:33:00,71.8,70.3,30.03,South,180,1.7,2.3,95,0.02,OVC,,0.08,WeatherDisplay:10.37,2013-07-07 07:33:00,
2013-07-07 03:38:00,71.8,70.3,30.03,SE,135,2.7,2.7,95,0.02,OVC,,0.08,WeatherDisplay:10.37,2013-07-07 07:38:00,
2013-07-07 03:43:00,71.8,70.3,30.02,SSE,158,2.0,2.3,95,0.01,OVC,,0.08,WeatherDisplay:10.37,2013-07-07 07:43:00,
2013-07-07 03:48:00,71.8,70.3,30.02,South,180,0.2,1.1,95,0.00,OVC,,0.08,WeatherDisplay:10.37,2013-07-07 07:48:00,
2013-07-07 03:53:00,71.8,70.3,30.02,South,180,2.4,2.7,95,0.00,OVC,,0.08,WeatherDisplay:10.37,2013-07-07 07:53:00,
2013-07-07 03:58:00,71.8,70.3,30.02,SSW,202,2.6,2.7,95,0.00,OVC,,0.08,WeatherDisplay:10.37,2013-07-07 07:58:00,
2013-07-07 04:03:00,71.8,70.3,30.02,SSE,158,2.4,2.7,95,0.00,OVC,,0.08,WeatherDisplay:10.37,2013-07-07 08:03:00,
2013-07-07 04:08:00,71.6,70.1,30.01,South,180,1.3,1.7,95,0.00,OVC,,0.08,WeatherDisplay:10.37,2013-07-07 08:08:00,
2013-07-07 04:13:00,71.6,70.1,30.01,South,180,0.7,2.3,95,0.00,BKN,,0.08,WeatherDisplay:10.37,2013-07-07 08:13:00,
2013-07-07 04:18:00,71.4,69.9,30.01,SSW,202,0.8,1.1,95,0.00,BKN,,0.08,WeatherDisplay:10.37,2013-07-07 08:18:00,
2013-07-07 04:19:00,71.2,69.7,30.01,SSW,202,0.0,1.1,95,0.00,BKN,,0.08,WeatherDisplay:10.37,2013-07-07 08:19:00,
2013-07-07 04:24:00,71.2,69.7,30.01,South,180,0.7,1.1,95,0.00,BKN,,0.08,WeatherDisplay:10.37,2013-07-07 08:24:00,
2013-07-07 04:29:00,71.1,69.6,30.00,ESE,112,0.0,1.1,95,0.00,BKN,,0.08,WeatherDisplay:10.37,2013-07-07 08:29:00,
2013-07-07 04:34:00,71.1,69.6,30.00,SSE,158,0.0,0.0,95,0.00,BKN,,0.08,WeatherDisplay:10.37,2013-07-07 08:34:00,
2013-07-07 04:39:00,71.1,69.6,30.00,SSE,158,0.6,1.1,95,0.00,BKN,,0.08,WeatherDisplay:10.37,2013-07-07 08:39:00,
2013-07-07 04:44:00,71.1,69.6,30.00,SSE,158,0.6,1.1,95,0.00,BKN,,0.08,WeatherDisplay:10.37,2013-07-07 08:44:00,
2013-07-07 04:49:00,71.1,69.6,30.00,SSE,158,0.0,0.0,95,0.00,BKN,,0.08,WeatherDisplay:10.37,2013-07-07 08:49:00,
2013-07-07 04:54:00,70.9,69.4,30.00,ESE,112,0.0,0.0,95,0.00,BKN,,0.08,WeatherDisplay:10.37,2013-07-07 08:54:00,
2013-07-07 04:59:00,70.7,69.2,30.00,ESE,112,0.0,0.0,95,0.00,BKN,,0.08,WeatherDisplay:10.37,2013-07-07 08:59:00,
2013-07-07 05:04:00,70.5,69.0,30.00,SE,135,0.0,0.0,95,0.00,BKN,,0.08,WeatherDisplay:10.37,2013-07-07 09:04:00,
2013-07-07 05:09:00,70.5,69.0,30.00,SE,135,0.0,0.0,95,0.00,BKN,,0.08,WeatherDisplay:10.37,2013-07-07 09:09:00,
2013-07-07 05:14:00,70.5,69.0,30.00,SE,135,0.0,0.0,95,0.00,BKN,,0.08,WeatherDisplay:10.37,2013-07-07 09:14:00,
2013-07-07 05:19:00,70.5,69.0,30.00,ESE,112,0.0,0.0,95,0.00,BKN,,0.08,WeatherDisplay:10.37,2013-07-07 09:19:00,
2013-07-07 05:24:00,70.5,69.0,30.00,ESE,112,0.0,0.0,95,0.00,BKN,,0.08,WeatherDisplay:10.37,2013-07-07 09:24:00,
2013-07-07 05:29:00,70.5,69.0,30.00,South,180,0.0,0.0,95,0.00,BKN,,0.08,WeatherDisplay:10.37,2013-07-07 09:29:00,
2013-07-07 05:34:00,70.5,69.0,30.00,SE,135,0.0,0.0,95,0.00,BKN,,0.08,WeatherDisplay:10.37,2013-07-07 09:34:00,
2013-07-07 05:39:00,70.5,69.0,30.00,WSW,248,1.5,1.7,95,0.00,BKN,,0.08,WeatherDisplay:10.37,2013-07-07 09:39:00,
2013-07-07 05:44:00,70.3,68.8,30.00,SW,225,0.0,0.0,95,0.00,BKN,,0.08,WeatherDisplay:10.37,2013-07-07 09:44:00,
2013-07-07 05:49:00,70.3,68.8,30.00,SSW,202,0.0,0.0,95,0.00,BKN,,0.08,WeatherDisplay:10.37,2013-07-07 09:49:00,
2013-07-07 05:54:00,70.2,68.7,30.00,SW,225,0.0,0.0,95,0.00,BKN,,0.08,WeatherDisplay:10.37,2013-07-07 09:54:00,
2013-07-07 05:59:00,70.2,68.7,30.00,ESE,112,0.8,1.1,95,0.00,BKN,,0.08,WeatherDisplay:10.37,2013-07-07 09:59:00,
2013-07-07 06:04:00,70.2,68.7,30.00,SSW,202,0.4,1.7,95,0.00,BKN,,0.08,WeatherDisplay:10.37,2013-07-07 10:04:00,
2013-07-07 06:09:00,70.3,68.8,30.00,SW,225,1.0,1.1,95,0.00,BKN,,0.08,WeatherDisplay:10.37,2013-07-07 10:09:00,
2013-07-07 06:14:00,70.3,68.8,30.00,South,180,2.2,2.3,95,0.00,BKN,,0.08,WeatherDisplay:10.37,2013-07-07 10:14:00,
2013-07-07 06:19:00,70.5,69.0,30.00,West,270,1.9,2.7,95,0.00,BKN,,0.08,WeatherDisplay:10.37,2013-07-07 10:19:00,
2013-07-07 06:24:00,70.7,69.2,30.00,South,180,2.0,2.3,95,0.00,BKN,,0.08,WeatherDisplay:10.37,2013-07-07 10:24:00,
2013-07-07 06:29:00,70.7,69.2,30.01,SSW,202,1.7,3.5,95,0.00,BKN,,0.08,WeatherDisplay:10.37,2013-07-07 10:29:00,
2013-07-07 06:34:00,70.9,69.4,30.01,SW,225,2.7,2.7,95,0.00,BKN,,0.08,WeatherDisplay:10.37,2013-07-07 10:34:00,
2013-07-07 06:39:00,71.1,69.6,30.01,WSW,248,2.7,3.5,95,0.00,BKN,,0.08,WeatherDisplay:10.37,2013-07-07 10:39:00,
2013-07-07 06:44:00,71.2,69.7,30.01,South,180,2.6,3.5,95,0.00,BKN,,0.08,WeatherDisplay:10.37,2013-07-07 10:44:00,
2013-07-07 06:49:00,71.2,69.7,30.01,SSW,202,1.8,3.5,95,0.00,BKN,,0.08,WeatherDisplay:10.37,2013-07-07 10:49:00,
2013-07-07 06:54:00,71.6,70.1,30.01,SW,225,2.4,2.7,95,0.00,BKN,,0.08,WeatherDisplay:10.37,2013-07-07 10:54:00,
2013-07-07 06:59:00,72.0,70.5,30.01,SSW,202,1.8,2.7,95,0.00,BKN,,0.08,WeatherDisplay:10.37,2013-07-07 10:59:00,
2013-07-07 07:04:00,72.0,70.5,30.01,South,180,3.4,3.5,95,0.00,BKN,,0.08,WeatherDisplay:10.37,2013-07-07 11:04:00,
2013-07-07 07:09:00,72.3,70.8,30.01,WSW,248,2.5,3.5,95,0.00,BKN,,0.08,WeatherDisplay:10.37,2013-07-07 11:09:00,
2013-07-07 07:14:00,72.3,70.8,30.01,SW,225,3.5,5.8,95,0.00,BKN,,0.08,WeatherDisplay:10.37,2013-07-07 11:14:00,
2013-07-07 07:19:00,72.5,71.0,30.02,SW,225,5.0,5.8,95,0.00,BKN,,0.08,WeatherDisplay:10.37,2013-07-07 11:19:00,
2013-07-07 07:24:00,72.5,71.0,30.02,WSW,248,2.5,3.5,95,0.00,BKN,,0.08,WeatherDisplay:10.37,2013-07-07 11:24:00,
2013-07-07 07:29:00,72.5,71.0,30.02,SW,225,3.8,4.6,95,0.00,BKN,,0.08,WeatherDisplay:10.37,2013-07-07 11:29:00,
2013-07-07 07:34:00,72.9,71.4,30.02,West,270,4.9,5.8,95,0.00,BKN,,0.08,WeatherDisplay:10.37,2013-07-07 11:34:00,
2013-07-07 07:39:00,73.0,71.2,30.02,SW,225,2.5,3.2,94,0.00,BKN,,0.08,WeatherDisplay:10.37,2013-07-07 11:39:00,
2013-07-07 07:44:00,73.0,71.2,30.02,WSW,248,4.6,5.8,94,0.00,BKN,,0.08,WeatherDisplay:10.37,2013-07-07 11:44:00,
2013-07-07 07:49:00,73.0,71.2,30.02,West,270,3.1,4.6,94,0.00,BKN,,0.08,WeatherDisplay:10.37,2013-07-07 11:49:00,
2013-07-07 07:54:00,73.2,71.1,30.02,WSW,248,3.9,5.8,93,0.00,BKN,,0.08,WeatherDisplay:10.37,2013-07-07 11:54:00,
2013-07-07 07:59:00,73.2,71.1,30.02,SW,225,4.8,5.3,93,0.00,BKN,,0.08,WeatherDisplay:10.37,2013-07-07 11:59:00,
2013-07-07 08:04:00,73.4,70.9,30.02,North,360,3.7,4.7,92,0.00,BKN,,0.08,WeatherDisplay:10.37,2013-07-07 12:04:00,
2013-07-07 08:09:00,74.3,71.5,30.02,SSW,202,3.8,5.8,91,0.00,BKN,,0.08,WeatherDisplay:10.37,2013-07-07 12:09:00,
2013-07-07 08:14:00,74.7,70.9,30.02,WSW,248,5.3,5.8,88,0.00,OVC,,0.08,WeatherDisplay:10.37,2013-07-07 12:14:00,
2013-07-07 08:19:00,74.5,70.7,30.02,WSW,248,5.8,5.8,88,0.00,OVC,,0.08,WeatherDisplay:10.37,2013-07-07 12:19:00,
2013-07-07 08:24:00,74.3,70.8,30.02,WSW,248,3.4,3.5,89,0.00,OVC,,0.08,WeatherDisplay:10.37,2013-07-07 12:24:00,
2013-07-07 08:29:00,74.1,70.6,30.03,WSW,248,5.3,5.8,89,0.00,OVC,,0.08,WeatherDisplay:10.37,2013-07-07 12:29:00,
2013-07-07 08:34:00,74.1,70.6,30.03,SSW,202,3.5,4.6,89,0.00,OVC,,0.08,WeatherDisplay:10.37,2013-07-07 12:34:00,
2013-07-07 08:39:00,73.8,70.4,30.03,West,270,4.8,6.9,89,0.00,OVC,,0.08,WeatherDisplay:10.37,2013-07-07 12:39:00,
2013-07-07 08:44:00,73.6,70.5,30.03,WNW,292,5.0,5.8,90,0.00,OVC,,0.08,WeatherDisplay:10.37,2013-07-07 12:44:00,
2013-07-07 08:49:00,73.6,70.5,30.03,West,270,5.4,10.4,90,0.00,OVC,,0.08,WeatherDisplay:10.37,2013-07-07 12:49:00,
2013-07-07 08:54:00,73.6,70.5,30.03,South,180,6.2,6.2,90,0.00,OVC,,0.08,WeatherDisplay:10.37,2013-07-07 12:54:00,
2013-07-07 08:59:00,73.6,70.2,30.03,WSW,248,4.3,6.9,89,0.00,OVC,,0.08,WeatherDisplay:10.37,2013-07-07 12:59:00,
2013-07-07 09:04:00,73.6,69.8,30.03,West,270,5.8,6.9,88,0.00,OVC,,0.08,WeatherDisplay:10.37,2013-07-07 13:04:00,
2013-07-07 09:09:00,74.1,70.0,30.03,SW,225,5.8,5.8,87,0.00,OVC,,0.08,WeatherDisplay:10.37,2013-07-07 13:09:00,
2013-07-07 09:14:00,74.3,69.8,30.03,West,270,6.4,9.2,86,0.00,OVC,,0.08,WeatherDisplay:10.37,2013-07-07 13:14:00,
2013-07-07 09:15:00,74.5,70.0,30.03,SW,225,6.4,6.9,86,0.00,OVC,,0.08,WeatherDisplay:10.37,2013-07-07 13:15:00,
2013-07-07 09:20:00,74.5,69.7,30.03,West,270,7.7,10.4,85,0.00,OVC,,0.08,WeatherDisplay:10.37,2013-07-07 13:20:00,
2013-07-07 09:25:00,74.7,69.9,30.03,WSW,248,6.8,8.1,85,0.00,OVC,,0.08,WeatherDisplay:10.37,2013-07-07 13:25:00,
2013-07-07 09:30:00,74.7,69.9,30.03,SSW,202,7.1,7.1,85,0.00,OVC,,0.08,WeatherDisplay:10.37,2013-07-07 13:30:00,
2013-07-07 09:35:00,74.3,69.5,30.03,WSW,248,9.5,11.5,85,0.00,OVC,,0.08,WeatherDisplay:10.37,2013-07-07 13:35:00,
2013-07-07 09:40:00,74.8,69.6,30.03,WSW,248,9.7,10.4,84,0.00,OVC,,0.08,WeatherDisplay:10.37,2013-07-07 13:40:00,
2013-07-07 09:45:00,76.3,70.4,30.03,West,270,6.3,8.1,82,0.00,OVC,,0.08,WeatherDisplay:10.37,2013-07-07 13:45:00,
2013-07-07 09:50:00,77.4,70.4,30.03,West,270,7.8,9.2,79,0.00,OVC,,0.08,WeatherDisplay:10.37,2013-07-07 13:50:00,
2013-07-07 09:55:00,77.7,70.3,30.02,WSW,248,9.4,11.5,78,0.00,OVC,,0.08,WeatherDisplay:10.37,2013-07-07 13:55:00,
2013-07-07 10:00:00,77.5,70.5,30.02,SW,225,7.1,10.4,79,0.00,OVC,,0.08,WeatherDisplay:10.37,2013-07-07 14:00:00,
2013-07-07 10:05:00,77.4,70.4,30.03,West,270,8.6,10.4,79,0.00,BKN,,0.08,WeatherDisplay:10.37,2013-07-07 14:05:00,
2013-07-07 10:10:00,76.3,70.0,30.03,WSW,248,8.0,10.4,81,0.00,BKN,,0.08,WeatherDisplay:10.37,2013-07-07 14:10:00,
2013-07-07 10:15:00,77.0,70.4,30.03,WSW,248,3.8,8.3,80,0.00,BKN,,0.08,WeatherDisplay:10.37,2013-07-07 14:15:00,
2013-07-07 10:20:00,77.7,70.3,30.03,SW,225,9.0,10.9,78,0.00,BKN,,0.08,WeatherDisplay:10.37,2013-07-07 14:20:00,
2013-07-07 10:25:00,78.3,70.5,30.03,West,270,8.3,11.4,77,0.00,BKN,,0.08,WeatherDisplay:10.37,2013-07-07 14:25:00,
2013-07-07 10:30:00,77.7,69.9,30.02,SW,225,10.0,12.7,77,0.00,BKN,,0.08,WeatherDisplay:10.37,2013-07-07 14:30:00,
2013-07-07 10:35:00,78.4,70.6,30.02,WSW,248,5.0,10.4,77,0.00,BKN,,0.08,WeatherDisplay:10.37,2013-07-07 14:35:00,
2013-07-07 10:40:00,78.6,70.0,30.02,SW,225,6.8,8.8,75,0.00,BKN,,0.08,WeatherDisplay:10.37,2013-07-07 14:40:00,
2013-07-07 10:45:00,78.6,70.4,30.02,WSW,248,6.7,10.4,76,0.00,BKN,,0.08,WeatherDisplay:10.37,2013-07-07 14:45:00,
2013-07-07 10:50:00,79.0,70.4,30.02,West,270,5.6,8.1,75,0.00,BKN,,0.08,WeatherDisplay:10.37,2013-07-07 14:50:00,
2013-07-07 10:55:00,79.2,70.2,30.02,West,270,7.3,10.4,74,0.00,BKN,,0.08,WeatherDisplay:10.37,2013-07-07 14:55:00,
2013-07-07 11:00:00,79.9,70.5,30.02,West,270,7.0,8.1,73,0.00,BKN,,0.08,WeatherDisplay:10.37,2013-07-07 15:00:00,
2013-07-07 11:05:00,79.3,69.5,30.02,WSW,248,9.6,11.5,72,0.00,BKN,,0.08,WeatherDisplay:10.37,2013-07-07 15:05:00,
2013-07-07 11:10:00,79.2,69.8,30.02,SW,225,9.4,9.4,73,0.00,BKN,,0.08,WeatherDisplay:10.37,2013-07-07 15:10:00,
2013-07-07 11:15:00,79.2,69.8,30.02,SW,225,9.4,9.4,73,0.00,BKN,,0.08,WeatherDisplay:10.37,2013-07-07 15:15:00,
2013-07-07 11:20:00,78.6,68.8,30.02,SW,225,7.6,9.2,72,0.00,BKN,,0.08,WeatherDisplay:10.37,2013-07-07 15:20:00,
2013-07-07 11:25:00,79.5,68.9,30.02,WSW,248,7.2,10.4,70,0.00,BKN,,0.08,WeatherDisplay:10.37,2013-07-07 15:25:00,
2013-07-07 11:30:00,79.9,69.7,30.02,SW,225,8.4,13.0,71,0.00,BKN,,0.08,WeatherDisplay:10.37,2013-07-07 15:30:00,
2013-07-07 11:35:00,78.6,69.2,30.02,WSW,248,8.6,9.2,73,0.00,BKN,,0.08,WeatherDisplay:10.37,2013-07-07 15:35:00,
2013-07-07 11:40:00,79.7,69.9,30.02,West,270,8.5,11.5,72,0.00,BKN,,0.08,WeatherDisplay:10.37,2013-07-07 15:40:00,
2013-07-07 11:45:00,79.9,69.7,30.02,West,270,9.5,12.7,71,0.00,BKN,,0.08,WeatherDisplay:10.37,2013-07-07 15:45:00,
2013-07-07 11:50:00,79.7,69.5,30.02,NW,315,8.0,10.4,71,0.00,BKN,,0.08,WeatherDisplay:10.37,2013-07-07 15:50:00,
2013-07-07 11:55:00,79.7,69.5,30.02,West,270,8.5,15.0,71,0.00,BKN,,0.08,WeatherDisplay:10.37,2013-07-07 15:55:00,
2013-07-07 12:00:00,80.8,70.1,30.02,West,270,5.1,10.4,70,0.00,BKN,,0.08,WeatherDisplay:10.37,2013-07-07 16:00:00,
2013-07-07 12:05:00,81.5,69.9,30.02,WSW,248,9.9,10.4,68,0.00,BKN,,0.08,WeatherDisplay:10.37,2013-07-07 16:05:00,
2013-07-07 12:10:00,80.2,68.2,30.02,West,270,7.0,9.2,67,0.00,BKN,,0.08,WeatherDisplay:10.37,2013-07-07 16:10:00,
2013-07-07 12:15:00,81.1,68.7,30.02,West,270,13.7,16.1,66,0.00,BKN,,0.08,WeatherDisplay:10.37,2013-07-07 16:15:00,
2013-07-07 12:20:00,81.3,68.9,30.01,SSW,202,9.0,10.4,66,0.00,BKN,,0.08,WeatherDisplay:10.37,2013-07-07 16:20:00,
2013-07-07 12:25:00,79.9,67.5,30.01,WSW,248,8.8,9.2,66,0.00,BKN,,0.08,WeatherDisplay:10.37,2013-07-07 16:25:00,
2013-07-07 12:30:00,79.9,67.5,30.02,WSW,248,8.8,9.2,66,0.00,BKN,,0.08,WeatherDisplay:10.37,2013-07-07 16:30:00,
2013-07-07 12:35:00,78.8,67.3,30.02,SW,225,8.8,11.5,68,0.00,BKN,,0.08,WeatherDisplay:10.37,2013-07-07 16:35:00,
2013-07-07 12:40:00,79.5,68.4,30.02,West,270,10.2,11.5,69,0.00,BKN,,0.08,WeatherDisplay:10.37,2013-07-07 16:40:00,
2013-07-07 12:45:00,81.7,70.1,30.02,West,270,5.0,7.8,68,0.00,BKN,,0.08,WeatherDisplay:10.37,2013-07-07 16:45:00,
2013-07-07 12:50:00,79.9,69.7,30.02,SW,225,9.8,12.7,71,0.00,BKN,,0.08,WeatherDisplay:10.37,2013-07-07 16:50:00,
2013-07-07 12:55:00,79.5,69.3,30.01,SW,225,7.3,7.3,71,0.00,BKN,,0.08,WeatherDisplay:10.37,2013-07-07 16:55:00,
2013-07-07 13:00:00,79.5,69.7,30.01,SSW,202,8.7,9.9,72,0.00,BKN,,0.08,WeatherDisplay:10.37,2013-07-07 17:00:00,
2013-07-07 13:05:00,79.3,69.5,30.01,WSW,248,7.6,9.2,72,0.00,BKN,,0.08,WeatherDisplay:10.37,2013-07-07 17:05:00,
2013-07-07 13:10:00,78.8,69.4,30.01,WSW,248,8.2,11.5,73,0.00,BKN,,0.08,WeatherDisplay:10.37,2013-07-07 17:10:00,
2013-07-07 13:15:00,78.8,69.0,30.01,SSW,202,8.0,11.5,72,0.00,BKN,,0.08,WeatherDisplay:10.37,2013-07-07 17:15:00,
2013-07-07 13:20:00,79.5,69.7,30.01,WSW,248,7.7,10.4,72,0.00,BKN,,0.08,WeatherDisplay:10.37,2013-07-07 17:20:00,
2013-07-07 13:25:00,78.1,68.7,30.01,South,180,9.6,12.7,73,0.00,BKN,,0.08,WeatherDisplay:10.37,2013-07-07 17:25:00,
2013-07-07 13:30:00,77.9,68.9,30.02,West,270,8.1,11.9,74,0.00,BKN,,0.08,WeatherDisplay:10.37,2013-07-07 17:30:00,
2013-07-07 13:35:00,77.7,68.4,30.02,SSW,202,7.4,13.8,73,0.00,BKN,,0.08,WeatherDisplay:10.37,2013-07-07 17:35:00,
2013-07-07 13:40:00,78.3,68.5,30.02,WSW,248,8.5,11.5,72,0.00,BKN,,0.08,WeatherDisplay:10.37,2013-07-07 17:40:00,
2013-07-07 13:45:00,78.4,68.6,30.01,West,270,7.2,8.1,72,0.00,BKN,,0.08,WeatherDisplay:10.37,2013-07-07 17:45:00,
2013-07-07 13:50:00,79.5,69.3,30.01,WNW,292,9.0,11.4,71,0.00,BKN,,0.08,WeatherDisplay:10.37,2013-07-07 17:50:00,
2013-07-07 13:55:00,79.3,69.1,30.01,SW,225,6.6,10.4,71,0.00,BKN,,0.08,WeatherDisplay:10.37,2013-07-07 17:55:00,
2013-07-07 14:00:00,80.6,69.5,30.01,North,360,7.3,9.2,69,0.00,BKN,,0.08,WeatherDisplay:10.37,2013-07-07 18:00:00,
2013-07-07 14:05:00,81.3,69.7,30.01,SSW,202,8.2,10.4,68,0.00,BKN,,0.08,WeatherDisplay:10.37,2013-07-07 18:05:00,
2013-07-07 14:10:00,81.5,69.9,30.01,East,90,8.9,10.4,68,0.00,BKN,,0.08,WeatherDisplay:10.37,2013-07-07 18:10:00,
2013-07-07 14:15:00,81.9,69.4,30.01,ESE,112,9.4,10.9,66,0.00,BKN,,0.08,WeatherDisplay:10.37,2013-07-07 18:15:00,
2013-07-07 14:20:00,81.9,69.9,30.00,West,270,8.1,10.4,67,0.00,BKN,,0.08,WeatherDisplay:10.37,2013-07-07 18:20:00,
2013-07-07 14:25:00,82.9,70.8,30.00,West,270,5.3,9.2,67,0.00,BKN,,0.08,WeatherDisplay:10.37,2013-07-07 18:25:00,
2013-07-07 14:30:00,81.7,69.2,30.00,West,270,8.5,10.9,66,0.00,BKN,,0.08,WeatherDisplay:10.37,2013-07-07 18:30:00,
2013-07-07 14:35:00,80.8,69.2,30.00,West,270,8.7,12.4,68,0.00,BKN,,0.08,WeatherDisplay:10.37,2013-07-07 18:35:00,
2013-07-07 14:40:00,80.4,68.9,30.00,West,270,9.4,10.4,68,0.00,BKN,,0.08,WeatherDisplay:10.37,2013-07-07 18:40:00,
2013-07-07 14:45:00,80.6,69.1,29.99,West,270,7.6,10.4,68,0.00,BKN,,0.08,WeatherDisplay:10.37,2013-07-07 18:45:00,
2013-07-07 14:50:00,82.0,69.5,29.99,NW,315,7.5,9.2,66,0.00,BKN,,0.08,WeatherDisplay:10.37,2013-07-07 18:50:00,
2013-07-07 14:55:00,83.1,70.1,29.99,West,270,7.5,9.2,65,0.00,BKN,,0.08,WeatherDisplay:10.37,2013-07-07 18:55:00,
2013-07-07 15:00:00,83.7,69.8,29.99,West,270,8.2,9.2,63,0.00,BKN,,0.08,WeatherDisplay:10.37,2013-07-07 19:00:00,
2013-07-07 15:05:00,82.9,69.9,29.99,WSW,248,6.3,6.9,65,0.00,BKN,,0.08,WeatherDisplay:10.37,2013-07-07 19:05:00,
2013-07-07 15:10:00,80.1,69.0,29.99,SW,225,5.7,6.9,69,0.00,BKN,,0.08,WeatherDisplay:10.37,2013-07-07 19:10:00,
2013-07-07 15:15:00,78.8,68.6,29.99,WSW,248,6.2,9.2,71,0.00,BKN,,0.08,WeatherDisplay:10.37,2013-07-07 19:15:00,
2013-07-07 15:20:00,78.3,68.5,29.99,SW,225,6.3,6.9,72,0.00,BKN,,0.08,WeatherDisplay:10.37,2013-07-07 19:20:00,
2013-07-07 15:25:00,78.1,68.7,29.99,WSW,248,7.7,7.8,73,0.00,BKN,,0.08,WeatherDisplay:10.37,2013-07-07 19:25:00,
2013-07-07 15:30:00,78.1,68.7,29.98,WNW,292,7.8,9.2,73,0.00,BKN,,0.08,WeatherDisplay:10.37,2013-07-07 19:30:00,
2013-07-07 15:35:00,78.4,68.6,29.98,WNW,292,8.2,9.2,72,0.00,BKN,,0.08,WeatherDisplay:10.37,2013-07-07 19:35:00,
2013-07-07 15:40:00,80.6,69.9,29.98,WNW,292,3.9,6.3,70,0.00,BKN,,0.08,WeatherDisplay:10.37,2013-07-07 19:40:00,
2013-07-07 15:45:00,81.1,70.0,29.97,WSW,248,7.2,10.4,69,0.00,BKN,,0.08,WeatherDisplay:10.37,2013-07-07 19:45:00,
2013-07-07 15:50:00,81.0,69.9,29.97,North,360,7.9,10.4,69,0.00,BKN,,0.08,WeatherDisplay:10.37,2013-07-07 19:50:00,
2013-07-07 15:55:00,80.8,69.2,29.97,SSW,202,7.0,11.5,68,0.00,BKN,,0.08,WeatherDisplay:10.37,2013-07-07 19:55:00,
2013-07-07 16:00:00,80.8,69.2,29.97,West,270,8.7,11.4,68,0.00,BKN,,0.08,WeatherDisplay:10.37,2013-07-07 20:00:00,
2013-07-07 16:05:00,80.8,69.2,29.97,WSW,248,8.5,10.4,68,0.00,BKN,,0.08,WeatherDisplay:10.37,2013-07-07 20:05:00,
2013-07-07 16:10:00,80.2,68.7,29.97,WSW,248,11.9,11.9,68,0.00,BKN,,0.08,WeatherDisplay:10.37,2013-07-07 20:10:00,
2013-07-07 16:15:00,78.8,68.6,29.97,WNW,292,8.4,11.5,71,0.00,BKN,,0.08,WeatherDisplay:10.37,2013-07-07 20:15:00,
2013-07-07 16:20:00,78.3,68.9,29.96,West,270,6.4,10.4,73,0.00,BKN,,0.08,WeatherDisplay:10.37,2013-07-07 20:20:00,
2013-07-07 16:25:00,77.5,68.2,29.96,WSW,248,7.2,16.1,73,0.00,BKN,,0.08,WeatherDisplay:10.37,2013-07-07 20:25:00,
2013-07-07 16:30:00,77.5,68.9,29.95,SW,225,8.9,10.4,75,0.00,BKN,,0.08,WeatherDisplay:10.37,2013-07-07 20:30:00,
2013-07-07 16:35:00,77.9,68.9,29.95,WSW,248,8.8,9.2,74,0.00,BKN,,0.08,WeatherDisplay:10.37,2013-07-07 20:35:00,
2013-07-07 16:40:00,78.6,69.2,29.95,SSW,202,8.5,10.4,73,0.00,BKN,,0.08,WeatherDisplay:10.37,2013-07-07 20:40:00,
2013-07-07 16:45:00,78.6,69.2,29.96,SW,225,11.7,12.7,73,0.00,BKN,,0.08,WeatherDisplay:10.37,2013-07-07 20:45:00,
2013-07-07 16:50:00,79.2,69.4,29.96,SW,225,6.9,12.7,72,0.00,BKN,,0.08,WeatherDisplay:10.37,2013-07-07 20:50:00,
2013-07-07 16:55:00,79.0,69.2,29.95,WSW,248,7.0,12.7,72,0.00,BKN,,0.08,WeatherDisplay:10.37,2013-07-07 20:55:00,
2013-07-07 17:00:00,78.3,68.5,29.95,SSW,202,9.4,12.7,72,0.00,BKN,,0.08,WeatherDisplay:10.37,2013-07-07 21:00:00,
2013-07-07 17:05:00,77.7,68.4,29.95,SW,225,7.5,8.1,73,0.00,BKN,,0.08,WeatherDisplay:10.37,2013-07-07 21:05:00,
2013-07-07 17:10:00,78.3,68.5,29.95,North,360,7.7,10.4,72,0.00,BKN,,0.08,WeatherDisplay:10.37,2013-07-07 21:10:00,
2013-07-07 17:15:00,78.4,68.6,29.95,WSW,248,7.6,9.2,72,0.00,BKN,,0.08,WeatherDisplay:10.37,2013-07-07 21:15:00,
2013-07-07 17:20:00,78.4,68.6,29.95,WSW,248,7.8,8.1,72,0.00,BKN,,0.08,WeatherDisplay:10.37,2013-07-07 21:20:00,
2013-07-07 17:25:00,78.3,68.5,29.95,SSW,202,7.6,9.2,72,0.00,BKN,,0.08,WeatherDisplay:10.37,2013-07-07 21:25:00,
2013-07-07 17:30:00,77.7,68.4,29.95,WSW,248,8.2,9.2,73,0.00,BKN,,0.08,WeatherDisplay:10.37,2013-07-07 21:30:00,
2013-07-07 17:35:00,77.5,68.6,29.95,West,270,9.0,9.2,74,0.00,BKN,,0.08,WeatherDisplay:10.37,2013-07-07 21:35:00,
2013-07-07 17:40:00,77.4,68.5,29.95,West,270,5.8,8.1,74,0.00,BKN,,0.08,WeatherDisplay:10.37,2013-07-07 21:40:00,
2013-07-07 17:45:00,77.5,68.2,29.95,WSW,248,5.8,8.1,73,0.00,BKN,,0.08,WeatherDisplay:10.37,2013-07-07 21:45:00,
2013-07-07 17:50:00,77.5,68.2,29.95,West,270,8.1,9.4,73,0.00,BKN,,0.08,WeatherDisplay:10.37,2013-07-07 21:50:00,
2013-07-07 17:55:00,76.8,67.9,29.95,WNW,292,6.3,12.7,74,0.00,BKN,,0.08,WeatherDisplay:10.37,2013-07-07 21:55:00,
2013-07-07 18:00:00,77.7,68.4,29.95,West,270,8.0,10.4,73,0.00,BKN,,0.08,WeatherDisplay:10.37,2013-07-07 22:00:00,
2013-07-07 18:05:00,78.6,68.8,29.95,West,270,4.9,8.1,72,0.00,BKN,,0.08,WeatherDisplay:10.37,2013-07-07 22:05:00,
2013-07-07 18:10:00,77.9,68.1,29.95,SW,225,9.3,11.5,72,0.00,BKN,,0.08,WeatherDisplay:10.37,2013-07-07 22:10:00,
2013-07-07 18:15:00,78.4,69.0,29.95,South,180,6.4,7.8,73,0.00,BKN,,0.08,WeatherDisplay:10.37,2013-07-07 22:15:00,
2013-07-07 18:20:00,78.1,68.7,29.95,SSW,202,6.3,8.1,73,0.00,BKN,,0.08,WeatherDisplay:10.37,2013-07-07 22:20:00,
2013-07-07 18:25:00,76.8,67.9,29.95,West,270,7.4,9.2,74,0.00,BKN,,0.08,WeatherDisplay:10.37,2013-07-07 22:25:00,
2013-07-07 18:30:00,75.7,67.6,29.95,SW,225,7.5,9.2,76,0.00,BKN,,0.08,WeatherDisplay:10.37,2013-07-07 22:30:00,
2013-07-07 18:35:00,75.6,67.9,29.95,SW,225,5.9,6.3,77,0.00,BKN,,0.08,WeatherDisplay:10.37,2013-07-07 22:35:00,
2013-07-07 18:40:00,75.2,67.9,29.95,West,270,7.6,8.1,78,0.00,BKN,,0.08,WeatherDisplay:10.37,2013-07-07 22:40:00,
2013-07-07 18:45:00,75.0,67.7,29.95,WSW,248,8.5,10.4,78,0.00,BKN,,0.08,WeatherDisplay:10.37,2013-07-07 22:45:00,
2013-07-07 18:50:00,75.2,67.9,29.95,SSW,202,5.8,6.9,78,0.00,BKN,,0.08,WeatherDisplay:10.37,2013-07-07 22:50:00,
2013-07-07 18:55:00,75.0,67.7,29.95,SW,225,6.8,10.4,78,0.00,BKN,,0.08,WeatherDisplay:10.37,2013-07-07 22:55:00,
2013-07-07 19:00:00,75.0,67.7,29.95,SW,225,6.9,8.3,78,0.00,BKN,,0.08,WeatherDisplay:10.37,2013-07-07 23:00:00,
2013-07-07 19:05:00,74.8,67.5,29.95,SW,225,6.3,6.3,78,0.00,BKN,,0.08,WeatherDisplay:10.37,2013-07-07 23:05:00,
2013-07-07 19:10:00,75.0,68.0,29.95,WSW,248,5.7,6.9,79,0.00,BKN,,0.08,WeatherDisplay:10.37,2013-07-07 23:10:00,
2013-07-07 19:15:00,74.8,67.8,29.95,West,270,5.1,6.9,79,0.00,BKN,,0.08,WeatherDisplay:10.37,2013-07-07 23:15:00,
2013-07-07 19:20:00,74.7,67.8,29.96,West,270,5.3,6.9,79,0.00,BKN,,0.08,WeatherDisplay:10.37,2013-07-07 23:20:00,
2013-07-07 19:25:00,74.5,67.6,29.96,SW,225,6.4,7.8,79,0.00,BKN,,0.08,WeatherDisplay:10.37,2013-07-07 23:25:00,
2013-07-07 19:30:00,74.3,67.4,29.96,SW,225,4.0,4.7,79,0.00,BKN,,0.08,WeatherDisplay:10.37,2013-07-07 23:30:00,
2013-07-07 19:35:00,74.5,67.6,29.96,SW,225,5.7,6.9,79,0.00,BKN,,0.08,WeatherDisplay:10.37,2013-07-07 23:35:00,
2013-07-07 19:40:00,74.5,67.2,29.96,SW,225,3.9,5.8,78,0.00,BKN,,0.08,WeatherDisplay:10.37,2013-07-07 23:40:00,
2013-07-07 19:45:00,74.1,66.8,29.96,West,270,5.1,6.9,78,0.00,BKN,,0.08,WeatherDisplay:10.37,2013-07-07 23:45:00,
2013-07-07 19:50:00,73.9,66.6,29.96,West,270,4.7,9.2,78,0.00,BKN,,0.08,WeatherDisplay:10.37,2013-07-07 23:50:00,
2013-07-07 19:55:00,73.6,66.7,29.95,West,270,6.1,9.2,79,0.00,BKN,,0.08,WeatherDisplay:10.37,2013-07-07 23:55:00,
2013-07-07 20:00:00,73.6,67.0,29.95,SE,135,6.4,6.9,80,0.00,BKN,,0.08,WeatherDisplay:10.37,2013-07-08 00:00:00,
2013-07-07 20:05:00,73.6,67.0,29.95,NNE,22,4.8,6.9,80,0.00,BKN,,0.08,WeatherDisplay:10.37,2013-07-08 00:05:00,
2013-07-07 20:10:00,73.4,66.9,29.95,West,270,4.9,6.9,80,0.00,BKN,,0.08,WeatherDisplay:10.37,2013-07-08 00:10:00,
2013-07-07 20:15:00,73.2,66.7,29.95,WSW,248,6.5,8.8,80,0.00,BKN,,0.08,WeatherDisplay:10.37,2013-07-08 00:15:00,
2013-07-07 20:20:00,73.0,66.8,29.97,SSW,202,6.1,7.3,81,0.00,BKN,,0.08,WeatherDisplay:10.37,2013-07-08 00:20:00,
2013-07-07 20:25:00,72.7,66.9,29.97,NW,315,6.0,9.2,82,0.00,BKN,,0.08,WeatherDisplay:10.37,2013-07-08 00:25:00,
2013-07-07 20:30:00,72.5,67.0,29.96,WSW,248,5.2,5.8,83,0.00,BKN,,0.08,WeatherDisplay:10.37,2013-07-08 00:30:00,
2013-07-07 20:35:00,72.3,66.8,29.96,SW,225,4.5,5.8,83,0.00,BKN,,0.08,WeatherDisplay:10.37,2013-07-08 00:35:00,
2013-07-07 20:40:00,72.1,66.6,29.96,West,270,6.2,8.1,83,0.00,BKN,,0.08,WeatherDisplay:10.37,2013-07-08 00:40:00,
2013-07-07 20:45:00,72.1,66.6,29.97,WSW,248,6.7,9.2,83,0.00,BKN,,0.08,WeatherDisplay:10.37,2013-07-08 00:45:00,
2013-07-07 20:50:00,72.0,66.6,29.97,West,270,5.6,7.8,83,0.00,BKN,,0.08,WeatherDisplay:10.37,2013-07-08 00:50:00,
2013-07-07 20:55:00,72.0,66.9,29.96,SSW,202,4.9,9.2,84,0.00,BKN,,0.08,WeatherDisplay:10.37,2013-07-08 00:55:00,
2013-07-07 21:00:00,71.8,66.7,29.96,SSW,202,5.5,6.9,84,0.00,BKN,,0.08,WeatherDisplay:10.37,2013-07-08 01:00:00,
2013-07-07 21:05:00,71.8,66.7,29.96,WNW,292,9.0,10.4,84,0.00,BKN,,0.08,WeatherDisplay:10.37,2013-07-08 01:05:00,
2013-07-07 21:10:00,71.8,66.7,29.96,West,270,6.9,8.8,84,0.00,BKN,,0.08,WeatherDisplay:10.37,2013-07-08 01:10:00,
2013-07-07 21:15:00,71.6,66.5,29.96,ESE,112,4.8,5.3,84,0.00,BKN,,0.08,WeatherDisplay:10.37,2013-07-08 01:15:00,
2013-07-07 21:20:00,71.6,66.5,29.97,NW,315,5.1,9.2,84,0.00,BKN,,0.08,WeatherDisplay:10.37,2013-07-08 01:20:00,
2013-07-07 21:25:00,71.6,66.5,29.97,WSW,248,2.4,4.6,84,0.00,BKN,,0.08,WeatherDisplay:10.37,2013-07-08 01:25:00,
2013-07-07 21:30:00,71.6,66.5,29.97,SSW,202,6.8,8.1,84,0.00,BKN,,0.08,WeatherDisplay:10.37,2013-07-08 01:30:00,
2013-07-07 21:35:00,71.6,66.5,29.97,SW,225,5.8,5.8,84,0.00,BKN,,0.08,WeatherDisplay:10.37,2013-07-08 01:35:00,
2013-07-07 21:40:00,71.6,66.5,29.97,SW,225,6.3,9.2,84,0.00,BKN,,0.08,WeatherDisplay:10.37,2013-07-08 01:40:00,
2013-07-07 21:45:00,71.4,66.3,29.96,WSW,248,5.4,6.9,84,0.00,BKN,,0.08,WeatherDisplay:10.37,2013-07-08 01:45:00,
2013-07-07 21:50:00,71.4,66.3,29.96,ESE,112,5.4,9.2,84,0.00,BKN,,0.08,WeatherDisplay:10.37,2013-07-08 01:50:00,
2013-07-07 21:55:00,71.2,66.1,29.97,SW,225,6.5,6.9,84,0.00,BKN,,0.08,WeatherDisplay:10.37,2013-07-08 01:55:00,
2013-07-07 22:00:00,71.2,66.1,29.97,West,270,5.2,6.8,84,0.00,BKN,,0.08,WeatherDisplay:10.37,2013-07-08 02:00:00,
2013-07-07 22:05:00,71.2,66.1,29.98,West,270,4.8,4.8,84,0.00,BKN,,0.08,WeatherDisplay:10.37,2013-07-08 02:05:00,
2013-07-07 22:10:00,71.2,66.1,29.98,WNW,292,5.5,8.1,84,0.00,BKN,,0.08,WeatherDisplay:10.37,2013-07-08 02:10:00,
2013-07-07 22:15:00,71.2,66.1,29.98,SW,225,4.2,4.6,84,0.00,BKN,,0.08,WeatherDisplay:10.37,2013-07-08 02:15:00,
2013-07-07 22:20:00,71.4,66.3,29.98,WSW,248,5.1,5.8,84,0.00,BKN,,0.08,WeatherDisplay:10.37,2013-07-08 02:20:00,
2013-07-07 22:25:00,71.4,66.3,29.98,West,270,4.9,9.2,84,0.00,BKN,,0.08,WeatherDisplay:10.37,2013-07-08 02:25:00,
2013-07-07 22:30:00,71.6,66.5,29.98,SSE,158,7.5,8.1,84,0.00,BKN,,0.08,WeatherDisplay:10.37,2013-07-08 02:30:00,
2013-07-07 22:35:00,71.6,66.5,29.98,SW,225,6.3,6.3,84,0.00,BKN,,0.08,WeatherDisplay:10.37,2013-07-08 02:35:00,
2013-07-07 22:40:00,71.6,66.5,29.98,SSW,202,6.3,6.8,84,0.00,BKN,,0.08,WeatherDisplay:10.37,2013-07-08 02:40:00,
2013-07-07 22:45:00,71.8,66.7,29.98,WSW,248,4.2,5.8,84,0.00,BKN,,0.08,WeatherDisplay:10.37,2013-07-08 02:45:00,
2013-07-07 22:47:00,71.8,66.7,29.98,WSW,248,5.8,6.9,84,0.00,BKN,,0.08,WeatherDisplay:10.37,2013-07-08 02:47:00,
2013-07-07 22:52:00,71.6,66.5,29.98,WSW,248,4.1,8.1,84,0.00,BKN,,0.08,WeatherDisplay:10.37,2013-07-08 02:52:00,
2013-07-07 22:57:00,71.6,66.8,29.97,WSW,248,6.3,9.2,85,0.00,BKN,,0.08,WeatherDisplay:10.37,2013-07-08 02:57:00,
2013-07-07 23:02:00,71.6,66.8,29.97,West,270,6.6,6.9,85,0.00,BKN,,0.08,WeatherDisplay:10.37,2013-07-08 03:02:00,
2013-07-07 23:07:00,71.6,66.8,29.98,West,270,5.3,5.8,85,0.00,BKN,,0.08,WeatherDisplay:10.37,2013-07-08 03:07:00,
2013-07-07 23:12:00,71.6,66.8,29.98,West,270,6.5,9.2,85,0.00,BKN,,0.08,WeatherDisplay:10.37,2013-07-08 03:12:00,
2013-07-07 23:17:00,71.6,66.8,29.98,WSW,248,5.1,5.8,85,0.00,BKN,,0.08,WeatherDisplay:10.37,2013-07-08 03:17:00,
2013-07-07 23:22:00,71.6,66.8,29.98,West,270,3.2,6.9,85,0.00,BKN,,0.08,WeatherDisplay:10.37,2013-07-08 03:22:00,
2013-07-07 23:27:00,71.6,66.8,29.98,SSW,202,4.6,4.7,85,0.00,BKN,,0.08,WeatherDisplay:10.37,2013-07-08 03:27:00,
2013-07-07 23:32:00,71.6,66.8,29.98,West,270,4.0,4.7,85,0.00,BKN,,0.08,WeatherDisplay:10.37,2013-07-08 03:32:00,
2013-07-07 23:37:00,71.6,66.8,29.98,WSW,248,3.1,5.8,85,0.00,BKN,,0.08,WeatherDisplay:10.37,2013-07-08 03:37:00,
2013-07-07 23:42:00,71.6,66.8,29.99,West,270,3.4,5.8,85,0.00,BKN,,0.08,WeatherDisplay:10.37,2013-07-08 03:42:00,
2013-07-07 23:47:00,71.6,66.8,29.99,SW,225,5.2,5.8,85,0.00,BKN,,0.08,WeatherDisplay:10.37,2013-07-08 03:47:00,
2013-07-07 23:52:00,71.4,66.7,29.99,NNW,338,2.5,2.7,85,0.00,BKN,,0.08,WeatherDisplay:10.37,2013-07-08 03:52:00,
2013-07-07 23:57:00,71.4,67.0,29.99,SW,225,3.8,6.3,86,0.00,BKN,,0.08,WeatherDisplay:10.37,2013-07-08 03:57:00,